| time (UTC) | temp F | wind direction | speed MPH | gust MPH | rain 1hr in | rain 24hr in | rain mn in | humidity % | barometer mb |
| 20260510015654 | 54 | 229 | 2.0 | 3.0 | 0.12 | 0.82 | 0.75 | 94 | 1010.7 |
| 20260510014649 | 54 | 229 | 2.0 | 3.0 | 0.12 | 0.82 | 0.75 | 94 | 1010.7 |
| 20260510013649 | 54 | 236 | 2.0 | 3.0 | 0.22 | 0.84 | 0.75 | 93 | 1010.5 |
| 20260510012650 | 54 | 247 | 2.0 | 3.0 | 0.33 | 0.85 | 0.75 | 93 | 1010.6 |
| 20260510011754 | 54 | 247 | 2.0 | 3.0 | 0.33 | 0.85 | 0.75 | 93 | 1010.6 |
| 20260510011650 | 54 | 247 | 2.0 | 3.0 | 0.33 | 0.85 | 0.75 | 93 | 1010.6 |
| 20260510010655 | 54 | 216 | 2.0 | 4.0 | 0.35 | 0.82 | 0.71 | 93 | 1010.0 |
| 20260510005748 | 54 | 298 | 1.0 | 3.0 | 0.27 | 0.74 | 0.63 | 92 | 1010.9 |
| 20260510005653 | 54 | 298 | 1.0 | 3.0 | 0.27 | 0.74 | 0.63 | 92 | 1010.9 |
| 20260510004648 | 54 | 298 | 1.0 | 3.0 | 0.27 | 0.74 | 0.63 | 92 | 1010.9 |
| 20260510003648 | 55 | 315 | 1.0 | 3.0 | 0.17 | 0.64 | 0.53 | 90 | 1010.8 |
| 20260510002649 | 56 | 293 | 2.0 | 7.0 | 0.06 | 0.53 | 0.42 | 84 | 1010.8 |
| 20260510001836 | 56 | 293 | 2.0 | 7.0 | 0.06 | 0.53 | 0.42 | 84 | 1010.8 |
| 20260510001653 | 56 | 293 | 2.0 | 7.0 | 0.06 | 0.53 | 0.42 | 84 | 1010.8 |
| 20260510000659 | 63 | 339 | 3.0 | 11.0 | 0.00 | 0.47 | 0.36 | 66 | 1010.0 |
| 20260509235732 | 66 | 231 | 2.0 | 8.0 | 0.00 | 0.47 | 0.36 | 60 | 1008.4 |
| 20260509235650 | 66 | 231 | 2.0 | 8.0 | 0.00 | 0.47 | 0.36 | 60 | 1008.4 |
| 20260509234726 | 66 | 231 | 2.0 | 8.0 | 0.00 | 0.47 | 0.36 | 60 | 1008.4 |
| 20260509234648 | 66 | 231 | 2.0 | 8.0 | 0.00 | 0.47 | 0.36 | 60 | 1008.4 |
| 20260509233651 | 66 | 241 | 3.0 | 6.0 | 0.00 | 0.47 | 0.36 | 60 | 1008.1 |
| 20260509232648 | 66 | 249 | 3.0 | 8.0 | 0.00 | 0.48 | 0.36 | 60 | 1008.3 |
| 20260509231650 | 66 | 249 | 3.0 | 8.0 | 0.00 | 0.48 | 0.36 | 60 | 1008.3 |
| 20260509230650 | 67 | 240 | 4.0 | 9.0 | 0.00 | 0.48 | 0.36 | 60 | 1007.9 |
| 20260509225648 | 67 | 236 | 5.0 | 13.0 | 0.00 | 0.48 | 0.36 | 58 | 1007.9 |
| 20260509224814 | 67 | 236 | 5.0 | 13.0 | 0.00 | 0.48 | 0.36 | 58 | 1007.9 |
| 20260509224653 | 67 | 236 | 5.0 | 13.0 | 0.00 | 0.48 | 0.36 | 58 | 1007.9 |
| 20260509223649 | 68 | 241 | 4.0 | 10.0 | 0.00 | 0.48 | 0.36 | 58 | 1008.0 |
| 20260509222742 | 68 | 246 | 4.0 | 11.0 | 0.00 | 0.48 | 0.36 | 59 | 1007.8 |
| 20260509222650 | 68 | 246 | 4.0 | 11.0 | 0.00 | 0.48 | 0.36 | 59 | 1007.8 |
| 20260509221648 | 68 | 246 | 4.0 | 11.0 | 0.00 | 0.48 | 0.36 | 59 | 1007.8 |
| 20260509220649 | 68 | 244 | 5.0 | 11.0 | 0.00 | 0.48 | 0.36 | 59 | 1007.8 |
| 20260509215754 | 68 | 241 | 5.0 | 12.0 | 0.00 | 0.49 | 0.36 | 58 | 1008.0 |
| 20260509215648 | 68 | 241 | 5.0 | 12.0 | 0.00 | 0.49 | 0.36 | 58 | 1008.0 |
| 20260509214648 | 68 | 241 | 5.0 | 12.0 | 0.00 | 0.49 | 0.36 | 58 | 1008.0 |
| 20260509213649 | 68 | 245 | 4.0 | 9.0 | 0.00 | 0.49 | 0.36 | 58 | 1008.0 |
| 20260509212751 | 68 | 254 | 3.0 | 9.0 | 0.00 | 0.50 | 0.36 | 60 | 1008.2 |
| 20260509212648 | 68 | 254 | 3.0 | 9.0 | 0.00 | 0.50 | 0.36 | 60 | 1008.2 |
| 20260509211921 | 68 | 254 | 3.0 | 9.0 | 0.00 | 0.50 | 0.36 | 60 | 1008.2 |
| 20260509211820 | 68 | 254 | 3.0 | 9.0 | 0.00 | 0.50 | 0.36 | 60 | 1008.2 |
| 20260509211649 | 68 | 254 | 3.0 | 9.0 | 0.00 | 0.50 | 0.36 | 60 | 1008.2 |
| 20260509210648 | 68 | 235 | 4.0 | 9.0 | 0.00 | 0.52 | 0.36 | 62 | 1008.3 |
| 20260509205734 | 67 | 242 | 4.0 | 11.0 | 0.00 | 0.52 | 0.36 | 61 | 1008.5 |
| 20260509205648 | 67 | 242 | 4.0 | 11.0 | 0.00 | 0.52 | 0.36 | 61 | 1008.5 |
| 20260509204651 | 67 | 242 | 4.0 | 11.0 | 0.00 | 0.52 | 0.36 | 61 | 1008.5 |
| 20260509203648 | 67 | 246 | 4.0 | 9.0 | 0.00 | 0.52 | 0.36 | 61 | 1008.5 |
| 20260509202651 | 67 | 246 | 5.0 | 11.0 | 0.00 | 0.52 | 0.36 | 63 | 1008.7 |
| 20260509201649 | 67 | 246 | 5.0 | 11.0 | 0.00 | 0.52 | 0.36 | 63 | 1008.7 |
| 20260509200649 | 68 | 252 | 3.0 | 12.0 | 0.00 | 0.52 | 0.36 | 64 | 1008.9 |
| 20260509195749 | 66 | 243 | 4.0 | 9.0 | 0.00 | 0.52 | 0.36 | 64 | 1009.2 |
| 20260509195648 | 66 | 243 | 4.0 | 9.0 | 0.00 | 0.52 | 0.36 | 64 | 1009.2 |
| 20260509194734 | 66 | 243 | 4.0 | 9.0 | 0.00 | 0.52 | 0.36 | 64 | 1009.2 |
| 20260509194649 | 66 | 243 | 4.0 | 9.0 | 0.00 | 0.52 | 0.36 | 64 | 1009.2 |
| 20260509193650 | 66 | 240 | 4.0 | 10.0 | 0.00 | 0.52 | 0.36 | 65 | 1009.3 |
| 20260509192728 | 66 | 245 | 4.0 | 10.0 | 0.00 | 0.52 | 0.36 | 64 | 1009.6 |
| 20260509192648 | 66 | 245 | 4.0 | 10.0 | 0.00 | 0.52 | 0.36 | 64 | 1009.6 |
| 20260509191729 | 66 | 245 | 4.0 | 10.0 | 0.00 | 0.52 | 0.36 | 64 | 1009.6 |
| 20260509191648 | 66 | 245 | 4.0 | 10.0 | 0.00 | 0.52 | 0.36 | 64 | 1009.6 |
| 20260509190652 | 66 | 258 | 4.0 | 8.0 | 0.00 | 0.52 | 0.36 | 64 | 1009.6 |
| 20260509185648 | 65 | 248 | 4.0 | 10.0 | 0.00 | 0.52 | 0.36 | 67 | 1009.5 |
| 20260509184655 | 65 | 248 | 4.0 | 10.0 | 0.00 | 0.52 | 0.36 | 67 | 1009.5 |
| 20260509183649 | 65 | 256 | 4.0 | 9.0 | 0.00 | 0.52 | 0.36 | 67 | 1009.8 |
| 20260509182731 | 64 | 239 | 3.0 | 11.0 | 0.00 | 0.52 | 0.36 | 69 | 1009.9 |
| 20260509182650 | 64 | 239 | 3.0 | 11.0 | 0.00 | 0.52 | 0.36 | 69 | 1009.9 |
| 20260509181648 | 64 | 239 | 3.0 | 11.0 | 0.00 | 0.52 | 0.36 | 69 | 1009.9 |
| 20260509180649 | 63 | 250 | 3.0 | 8.0 | 0.00 | 0.52 | 0.36 | 75 | 1009.7 |
| 20260509175653 | 62 | 248 | 3.0 | 8.0 | 0.00 | 0.52 | 0.36 | 74 | 1009.9 |
| 20260509174648 | 62 | 248 | 3.0 | 8.0 | 0.00 | 0.52 | 0.36 | 74 | 1009.9 |
| 20260509173738 | 61 | 256 | 3.0 | 7.0 | 0.00 | 0.52 | 0.36 | 78 | 1010.0 |
| 20260509173651 | 61 | 256 | 3.0 | 7.0 | 0.00 | 0.52 | 0.36 | 78 | 1010.0 |
| 20260509172727 | 61 | 241 | 2.0 | 6.0 | 0.00 | 0.52 | 0.36 | 80 | 1010.0 |
| 20260509172648 | 61 | 241 | 2.0 | 6.0 | 0.00 | 0.52 | 0.36 | 80 | 1010.0 |
| 20260509171653 | 61 | 241 | 2.0 | 6.0 | 0.00 | 0.52 | 0.36 | 80 | 1010.0 |
| 20260509170653 | 60 | 253 | 3.0 | 8.0 | 0.00 | 0.52 | 0.36 | 81 | 1010.0 |
| 20260509165648 | 59 | 251 | 2.0 | 6.0 | 0.00 | 0.52 | 0.36 | 87 | 1010.4 |
| 20260509164655 | 59 | 251 | 2.0 | 6.0 | 0.00 | 0.52 | 0.36 | 87 | 1010.4 |
| 20260509163650 | 58 | 232 | 3.0 | 8.0 | 0.00 | 0.52 | 0.36 | 87 | 1010.5 |
| 20260509162648 | 56 | 238 | 2.0 | 7.0 | 0.00 | 0.52 | 0.36 | 90 | 1010.5 |
| 20260509160648 | 56 | 255 | 2.0 | 5.0 | 0.00 | 0.52 | 0.36 | 90 | 1010.3 |
| 20260509160005 | 55 | 253 | 2.0 | 4.0 | 0.00 | 0.52 | 0.36 | 92 | 1010.3 |
| 20260509155648 | 55 | 253 | 2.0 | 4.0 | 0.00 | 0.52 | 0.36 | 92 | 1010.3 |
| 20260509155005 | 55 | 253 | 2.0 | 4.0 | 0.00 | 0.52 | 0.36 | 92 | 1010.3 |
| 20260509154652 | 55 | 253 | 2.0 | 4.0 | 0.00 | 0.52 | 0.36 | 92 | 1010.3 |
| 20260509153649 | 55 | 242 | 2.0 | 4.0 | 0.00 | 0.52 | 0.36 | 93 | 1010.3 |
| 20260509152750 | 54 | 252 | 2.0 | 6.0 | 0.00 | 0.52 | 0.36 | 93 | 1010.4 |
| 20260509152648 | 54 | 252 | 2.0 | 6.0 | 0.00 | 0.52 | 0.36 | 93 | 1010.4 |
| 20260509151752 | 54 | 252 | 2.0 | 6.0 | 0.00 | 0.52 | 0.36 | 93 | 1010.4 |
| 20260509151654 | 54 | 252 | 2.0 | 6.0 | 0.00 | 0.52 | 0.36 | 93 | 1010.4 |
| 20260509150650 | 54 | 257 | 2.0 | 4.0 | 0.00 | 0.52 | 0.36 | 94 | 1010.4 |
| 20260509145742 | 54 | 251 | 2.0 | 4.0 | 0.00 | 0.52 | 0.36 | 95 | 1010.4 |
| 20260509145651 | 54 | 251 | 2.0 | 4.0 | 0.00 | 0.52 | 0.36 | 95 | 1010.4 |
| 20260509144650 | 54 | 251 | 2.0 | 4.0 | 0.00 | 0.52 | 0.36 | 95 | 1010.4 |
| 20260509143649 | 53 | 243 | 3.0 | 7.0 | 0.00 | 0.52 | 0.36 | 96 | 1010.1 |
| 20260509142647 | 53 | 246 | 2.0 | 5.0 | 0.00 | 0.52 | 0.36 | 96 | 1010.3 |
| 20260509141733 | 53 | 246 | 2.0 | 5.0 | 0.00 | 0.52 | 0.36 | 96 | 1010.3 |
| 20260509141649 | 53 | 246 | 2.0 | 5.0 | 0.00 | 0.52 | 0.36 | 96 | 1010.3 |
| 20260509140648 | 53 | 253 | 2.0 | 5.0 | 0.00 | 0.52 | 0.36 | 96 | 1010.1 |
| 20260509135759 | 53 | 243 | 2.0 | 7.0 | 0.00 | 0.52 | 0.36 | 97 | 1010.1 |
| 20260509135648 | 53 | 243 | 2.0 | 7.0 | 0.00 | 0.52 | 0.36 | 97 | 1010.1 |
| 20260509134648 | 53 | 243 | 2.0 | 7.0 | 0.00 | 0.52 | 0.36 | 97 | 1010.1 |
| 20260509133917 | 52 | 240 | 3.0 | 7.0 | 0.00 | 0.52 | 0.36 | 97 | 1010.2 |
| 20260509133653 | 52 | 240 | 3.0 | 7.0 | 0.00 | 0.52 | 0.36 | 97 | 1010.2 |
| 20260509133006 | 52 | 249 | 2.0 | 4.0 | 0.00 | 0.52 | 0.36 | 97 | 1010.6 |
| 20260509132650 | 52 | 249 | 2.0 | 4.0 | 0.00 | 0.52 | 0.36 | 97 | 1010.6 |
| 20260509131649 | 52 | 249 | 2.0 | 4.0 | 0.00 | 0.52 | 0.36 | 97 | 1010.6 |
| 20260509130649 | 51 | 247 | 2.0 | 4.0 | 0.00 | 0.52 | 0.36 | 97 | 1010.6 |
| 20260509125650 | 51 | 245 | 2.0 | 5.0 | 0.00 | 0.52 | 0.36 | 97 | 1010.5 |
| 20260509124647 | 51 | 245 | 2.0 | 5.0 | 0.00 | 0.52 | 0.36 | 97 | 1010.5 |
| 20260509123653 | 50 | 235 | 2.0 | 4.0 | 0.00 | 0.52 | 0.36 | 97 | 1010.5 |
| 20260509122813 | 50 | 236 | 2.0 | 3.0 | 0.00 | 0.52 | 0.36 | 97 | 1010.6 |
| 20260509122648 | 50 | 236 | 2.0 | 3.0 | 0.00 | 0.52 | 0.36 | 97 | 1010.6 |
| 20260509121648 | 50 | 236 | 2.0 | 3.0 | 0.00 | 0.52 | 0.36 | 97 | 1010.6 |
| 20260509120649 | 50 | 239 | 2.0 | 4.0 | 0.01 | 0.52 | 0.36 | 97 | 1010.7 |
| 20260509115647 | 50 | 237 | 2.0 | 4.0 | 0.02 | 0.52 | 0.36 | 97 | 1010.7 |
| 20260509114902 | 50 | 237 | 2.0 | 4.0 | 0.02 | 0.52 | 0.36 | 97 | 1010.7 |
| 20260509114650 | 50 | 237 | 2.0 | 4.0 | 0.02 | 0.52 | 0.36 | 97 | 1010.7 |
| 20260509113651 | 50 | 235 | 2.0 | 4.0 | 0.03 | 0.52 | 0.36 | 97 | 1010.5 |
| 20260509112647 | 50 | 233 | 1.0 | 3.0 | 0.05 | 0.52 | 0.36 | 97 | 1010.5 |
| 20260509112005 | 50 | 233 | 1.0 | 3.0 | 0.05 | 0.52 | 0.36 | 97 | 1010.5 |
| 20260509111648 | 50 | 233 | 1.0 | 3.0 | 0.05 | 0.52 | 0.36 | 97 | 1010.5 |
| 20260509110731 | 50 | 230 | 1.0 | 3.0 | 0.06 | 0.51 | 0.35 | 97 | 1010.4 |
| 20260509110654 | 50 | 230 | 1.0 | 3.0 | 0.06 | 0.51 | 0.35 | 97 | 1010.4 |
| 20260509105649 | 50 | 231 | 1.0 | 2.0 | 0.07 | 0.50 | 0.34 | 97 | 1010.4 |
| 20260509104647 | 50 | 231 | 1.0 | 2.0 | 0.07 | 0.50 | 0.34 | 97 | 1010.4 |
| 20260509103651 | 50 | 208 | 1.0 | 3.0 | 0.07 | 0.49 | 0.33 | 97 | 1010.6 |
| 20260509102648 | 50 | 214 | 2.0 | 4.0 | 0.06 | 0.47 | 0.31 | 96 | 1010.5 |
| 20260509101648 | 50 | 214 | 2.0 | 4.0 | 0.06 | 0.47 | 0.31 | 96 | 1010.5 |
| 20260509100655 | 50 | 217 | 3.0 | 5.0 | 0.04 | 0.45 | 0.29 | 96 | 1010.5 |
| 20260509095647 | 50 | 225 | 3.0 | 6.0 | 0.04 | 0.43 | 0.27 | 96 | 1010.7 |
| 20260509094728 | 50 | 225 | 3.0 | 6.0 | 0.04 | 0.43 | 0.27 | 96 | 1010.7 |
| 20260509094652 | 50 | 225 | 3.0 | 6.0 | 0.04 | 0.43 | 0.27 | 96 | 1010.7 |
| 20260509093739 | 49 | 216 | 2.0 | 5.0 | 0.04 | 0.42 | 0.26 | 96 | 1010.8 |
| 20260509093651 | 49 | 216 | 2.0 | 5.0 | 0.04 | 0.42 | 0.26 | 96 | 1010.8 |
| 20260509093006 | 49 | 222 | 2.0 | 7.0 | 0.06 | 0.41 | 0.25 | 96 | 1010.8 |
| 20260509092648 | 49 | 222 | 2.0 | 7.0 | 0.06 | 0.41 | 0.25 | 96 | 1010.8 |
| 20260509091652 | 49 | 222 | 2.0 | 7.0 | 0.06 | 0.41 | 0.25 | 96 | 1010.8 |
| 20260509090648 | 49 | 228 | 1.0 | 5.0 | 0.08 | 0.41 | 0.25 | 96 | 1011.0 |
| 20260509085803 | 49 | 213 | 2.0 | 4.0 | 0.06 | 0.39 | 0.23 | 96 | 1011.1 |
| 20260509085651 | 49 | 213 | 2.0 | 4.0 | 0.06 | 0.39 | 0.23 | 96 | 1011.1 |
| 20260509085009 | 49 | 213 | 2.0 | 4.0 | 0.06 | 0.39 | 0.23 | 96 | 1011.1 |
| 20260509084855 | 49 | 213 | 2.0 | 4.0 | 0.06 | 0.39 | 0.23 | 96 | 1011.1 |
| 20260509084650 | 49 | 213 | 2.0 | 4.0 | 0.06 | 0.39 | 0.23 | 96 | 1011.1 |
| 20260509083650 | 49 | 209 | 2.0 | 5.0 | 0.09 | 0.38 | 0.22 | 96 | 1011.2 |
| 20260509082744 | 49 | 207 | 2.0 | 5.0 | 0.08 | 0.35 | 0.19 | 96 | 1011.2 |
| 20260509082648 | 49 | 207 | 2.0 | 5.0 | 0.08 | 0.35 | 0.19 | 96 | 1011.2 |
| 20260509082010 | 49 | 207 | 2.0 | 5.0 | 0.08 | 0.35 | 0.19 | 96 | 1011.2 |
| 20260509081903 | 49 | 207 | 2.0 | 5.0 | 0.08 | 0.35 | 0.19 | 96 | 1011.2 |
| 20260509081651 | 49 | 207 | 2.0 | 5.0 | 0.08 | 0.35 | 0.19 | 96 | 1011.2 |
| 20260509081010 | 49 | 214 | 3.0 | 7.0 | 0.07 | 0.33 | 0.17 | 96 | 1011.2 |
| 20260509080649 | 49 | 214 | 3.0 | 7.0 | 0.07 | 0.33 | 0.17 | 96 | 1011.2 |
| 20260509075647 | 49 | 210 | 2.0 | 4.0 | 0.08 | 0.33 | 0.17 | 96 | 1011.5 |
| 20260509074648 | 49 | 210 | 2.0 | 4.0 | 0.08 | 0.33 | 0.17 | 96 | 1011.5 |
| 20260509073648 | 49 | 209 | 2.0 | 4.0 | 0.04 | 0.29 | 0.13 | 96 | 1011.5 |
| 20260509072652 | 49 | 207 | 2.0 | 5.0 | 0.03 | 0.27 | 0.11 | 96 | 1011.3 |
| 20260509071647 | 49 | 207 | 2.0 | 5.0 | 0.03 | 0.27 | 0.11 | 96 | 1011.3 |
| 20260509070648 | 49 | 200 | 2.0 | 4.0 | 0.02 | 0.26 | 0.10 | 96 | 1011.3 |
| 20260509065649 | 49 | 220 | 1.0 | 4.0 | 0.03 | 0.25 | 0.09 | 96 | 1011.5 |
| 20260509064651 | 49 | 220 | 1.0 | 4.0 | 0.03 | 0.25 | 0.09 | 96 | 1011.5 |
| 20260509063652 | 49 | 189 | 1.0 | 4.0 | 0.03 | 0.25 | 0.09 | 96 | 1011.6 |
| 20260509062650 | 49 | 198 | 1.0 | 4.0 | 0.04 | 0.24 | 0.08 | 96 | 1011.8 |
| 20260509061648 | 49 | 198 | 1.0 | 4.0 | 0.04 | 0.24 | 0.08 | 96 | 1011.8 |
| 20260509060649 | 49 | 173 | 1.0 | 5.0 | 0.05 | 0.24 | 0.08 | 96 | 1011.9 |
| 20260509055756 | 49 | 170 | 1.0 | 4.0 | 0.04 | 0.22 | 0.06 | 96 | 1012.1 |
| 20260509055648 | 49 | 170 | 1.0 | 4.0 | 0.04 | 0.22 | 0.06 | 96 | 1012.1 |
| 20260509054648 | 49 | 170 | 1.0 | 4.0 | 0.04 | 0.22 | 0.06 | 96 | 1012.1 |
| 20260509053648 | 49 | 178 | 2.0 | 11.0 | 0.04 | 0.22 | 0.06 | 95 | 1012.4 |
| 20260509052800 | 49 | 148 | 1.0 | 4.0 | 0.03 | 0.20 | 0.04 | 95 | 1012.5 |
| 20260509052728 | 49 | 148 | 1.0 | 4.0 | 0.03 | 0.20 | 0.04 | 95 | 1012.5 |
| 20260509052648 | 49 | 148 | 1.0 | 4.0 | 0.03 | 0.20 | 0.04 | 95 | 1012.5 |
| 20260509051649 | 49 | 148 | 1.0 | 4.0 | 0.03 | 0.20 | 0.04 | 95 | 1012.5 |
| 20260509050649 | 49 | 186 | 1.0 | 4.0 | 0.03 | 0.19 | 0.03 | 95 | 1012.6 |
| 20260509045648 | 49 | 161 | 1.0 | 3.0 | 0.03 | 0.18 | 0.02 | 95 | 1012.8 |
| 20260509044648 | 49 | 161 | 1.0 | 3.0 | 0.03 | 0.18 | 0.02 | 95 | 1012.8 |
| 20260509044011 | 49 | 177 | 1.0 | 4.0 | 0.04 | 0.18 | 0.02 | 95 | 1012.9 |
| 20260509043656 | 49 | 177 | 1.0 | 4.0 | 0.04 | 0.18 | 0.02 | 95 | 1012.9 |
| 20260509043008 | 49 | 176 | 1.0 | 3.0 | 0.04 | 0.17 | 0.01 | 95 | 1013.0 |
| 20260509042654 | 49 | 176 | 1.0 | 3.0 | 0.04 | 0.17 | 0.01 | 95 | 1013.0 |
| 20260509041648 | 49 | 176 | 1.0 | 3.0 | 0.04 | 0.17 | 0.01 | 95 | 1013.0 |
| 20260509040649 | 49 | 171 | 2.0 | 7.0 | 0.03 | 0.16 | 0.00 | 95 | 1013.1 |
| 20260509035849 | 49 | 213 | 2.0 | 6.0 | 0.03 | 0.15 | 0.15 | 95 | 1013.5 |
| 20260509035647 | 49 | 213 | 2.0 | 6.0 | 0.03 | 0.15 | 0.15 | 95 | 1013.5 |
| 20260509035006 | 49 | 213 | 2.0 | 6.0 | 0.03 | 0.15 | 0.15 | 95 | 1013.5 |
| 20260509034650 | 49 | 213 | 2.0 | 6.0 | 0.03 | 0.15 | 0.15 | 95 | 1013.5 |
| 20260509033651 | 49 | 205 | 2.0 | 6.0 | 0.02 | 0.14 | 0.14 | 95 | 1013.5 |
| 20260509032654 | 49 | 206 | 1.0 | 3.0 | 0.02 | 0.13 | 0.13 | 95 | 1013.6 |
| 20260509031649 | 49 | 206 | 1.0 | 3.0 | 0.02 | 0.13 | 0.13 | 95 | 1013.6 |
| 20260509031009 | 49 | 178 | 1.0 | 3.0 | 0.03 | 0.13 | 0.13 | 95 | 1013.8 |
| 20260509030648 | 49 | 178 | 1.0 | 3.0 | 0.03 | 0.13 | 0.13 | 95 | 1013.8 |
| 20260509025648 | 49 | 199 | 1.0 | 2.0 | 0.03 | 0.12 | 0.12 | 95 | 1014.0 |
| 20260509024723 | 49 | 199 | 1.0 | 2.0 | 0.03 | 0.12 | 0.12 | 95 | 1014.0 |
| 20260509024650 | 49 | 199 | 1.0 | 2.0 | 0.03 | 0.12 | 0.12 | 95 | 1014.0 |
| 20260509023651 | 49 | 197 | 1.0 | 2.0 | 0.05 | 0.12 | 0.12 | 95 | 1013.9 |
| 20260509022759 | 49 | 200 | 0.0 | 2.0 | 0.05 | 0.11 | 0.11 | 95 | 1014.1 |
| 20260509022647 | 49 | 200 | 0.0 | 2.0 | 0.05 | 0.11 | 0.11 | 95 | 1014.1 |
| 20260509022026 | 49 | 200 | 0.0 | 2.0 | 0.05 | 0.11 | 0.11 | 95 | 1014.1 |
| 20260509021647 | 49 | 200 | 0.0 | 2.0 | 0.05 | 0.11 | 0.11 | 95 | 1014.1 |
| 20260509020648 | 49 | 200 | 1.0 | 2.0 | 0.05 | 0.10 | 0.10 | 95 | 1014.1 |